KLBL/LBL METAR and TAF weather

Enter ICAO airport designator
Station Type Date Time Source
KLBL METAR 2022/01/23 12:56 UTC NOAA

KLBL 231256Z AUTO 29010KT 10SM CLR M03/M05 A3021 RMK AO2 SLP251 T10281050 FZRANO


Station Type Date Time Source
KLBL Decoded METAR 2022/01/23 12:56 UTC NOAA

Liberal, Liberal Municipal Airport, KS, United States (KLBL) 37-03N 100-58W
Jan 23, 2022 - 07:56 AM EST / 2022.01.23 1256 UTC
Wind: from the WNW (290 degrees) at 12 MPH (10 KT):0
Visibility: 10 mile(s):0
Sky conditions: clear
Temperature: 27.0 F (-2.8 C)
Windchill: 15 F (-9 C):1
Dew Point: 23.0 F (-5.0 C)
Relative Humidity: 84%
Pressure (altimeter): 30.21 in. Hg (1023 hPa)
ob: KLBL 231256Z AUTO 29010KT 10SM CLR M03/M05 A3021 RMK AO2 SLP251 T10281050 FZRANO
cycle: 13

Station Type Date Time Source
KLBL TAF 2022/01/23 12:27 UTC NOAA

TAF KLBL 231124Z 2312/2412 31010KT P6SM SKC

Example: see airport list